createdAt,value
2022-11-15T00:02:36.552Z,19.77
2022-11-15T00:05:22.667Z,20.50
2022-11-15T00:08:09.256Z,19.95
2022-11-15T00:10:56.683Z,20.20
2022-11-15T00:13:42.609Z,20.58
2022-11-15T00:16:29.062Z,20.00
2022-11-15T00:19:16.211Z,20.48
2022-11-15T00:22:05.848Z,21.42
2022-11-15T00:24:52.082Z,20.20
2022-11-15T00:27:38.089Z,21.67
2022-11-15T00:30:24.657Z,20.58
2022-11-15T00:33:11.596Z,20.15
2022-11-15T00:36:03.044Z,20.48
2022-11-15T00:38:49.941Z,20.23
2022-11-15T00:41:37.161Z,21.33
2022-11-15T00:44:23.695Z,21.75
2022-11-15T00:47:10.048Z,21.90
2022-11-15T00:49:56.686Z,22.25
2022-11-15T00:52:42.818Z,20.75
2022-11-15T00:55:32.266Z,21.90
2022-11-15T00:58:18.638Z,21.77
2022-11-15T01:03:41.000Z,20.85
2022-11-15T01:06:27.062Z,21.25
2022-11-15T01:09:14.593Z,20.63
2022-11-15T01:12:03.407Z,21.45
2022-11-15T01:14:49.434Z,21.67
2022-11-15T01:17:35.839Z,21.02
2022-11-15T01:20:21.854Z,21.75
2022-11-15T01:23:09.213Z,21.52
2022-11-15T01:26:00.321Z,21.38
2022-11-15T01:28:47.010Z,20.00
2022-11-15T01:31:33.134Z,20.10
2022-11-15T01:34:22.259Z,19.80
2022-11-15T01:37:08.930Z,20.20
2022-11-15T01:39:55.196Z,20.48
2022-11-15T01:42:41.413Z,19.23
2022-11-15T01:45:28.199Z,19.65
2022-11-15T01:48:14.183Z,19.63
2022-11-15T01:51:02.065Z,20.13
2022-11-15T01:53:50.703Z,19.38
2022-11-15T01:56:39.301Z,21.08
2022-11-15T01:59:26.166Z,21.00
2022-11-15T02:02:12.918Z,20.27
2022-11-15T02:05:00.312Z,20.73
2022-11-15T02:07:46.583Z,20.95
2022-11-15T02:10:35.252Z,20.00
2022-11-15T02:13:21.375Z,20.00
2022-11-15T02:16:14.140Z,19.77
2022-11-15T02:19:18.489Z,20.92
2022-11-15T02:22:05.886Z,20.35
2022-11-15T02:24:58.256Z,21.25
2022-11-15T02:27:44.843Z,19.90
2022-11-15T02:30:33.945Z,20.30
2022-11-15T02:33:23.636Z,20.35
2022-11-15T02:36:13.537Z,19.87
2022-11-15T02:39:05.976Z,20.42
2022-11-15T02:42:31.332Z,19.60
2022-11-15T02:45:22.360Z,18.45
2022-11-15T02:48:09.232Z,20.13
2022-11-15T02:50:55.882Z,19.45
2022-11-15T02:53:42.437Z,19.63
2022-11-15T02:56:28.721Z,21.95
2022-11-15T02:59:19.455Z,18.73
2022-11-15T03:02:08.370Z,19.42
2022-11-15T03:05:00.301Z,19.15
2022-11-15T03:08:00.929Z,18.23
2022-11-15T03:10:52.455Z,18.58
2022-11-15T03:13:52.965Z,19.67
2022-11-15T03:16:40.528Z,18.88
2022-11-15T03:19:46.010Z,19.27
2022-11-15T03:22:35.095Z,20.05
2022-11-15T03:25:23.397Z,20.25
2022-11-15T03:28:11.485Z,20.55
2022-11-15T03:30:58.527Z,20.27
2022-11-15T03:33:45.260Z,19.83
2022-11-15T03:36:35.923Z,20.55
2022-11-15T03:42:10.050Z,21.33
2022-11-15T03:45:09.170Z,21.55
2022-11-15T03:48:03.436Z,22.10
2022-11-15T03:50:50.584Z,21.92
2022-11-15T03:53:37.271Z,21.38
2022-11-15T03:56:24.151Z,22.67
2022-11-15T03:59:10.199Z,22.45
2022-11-15T04:01:56.181Z,22.15
2022-11-15T04:04:42.618Z,21.58
2022-11-15T04:07:28.894Z,23.20
2022-11-15T04:10:16.703Z,22.73
2022-11-15T04:13:04.518Z,23.40
2022-11-15T04:15:50.792Z,23.05
2022-11-15T04:18:36.913Z,22.65
2022-11-15T04:21:42.254Z,22.30
2022-11-15T04:24:28.527Z,21.67
2022-11-15T04:27:15.301Z,23.05
2022-11-15T04:30:01.768Z,22.83
2022-11-15T04:32:47.784Z,21.73
2022-11-15T04:35:33.924Z,23.15
2022-11-15T04:38:20.249Z,20.55
2022-11-15T04:41:07.343Z,23.48
2022-11-15T04:43:53.608Z,22.60
2022-11-15T04:46:39.729Z,23.00
2022-11-15T04:49:25.871Z,22.20
2022-11-15T04:52:12.491Z,21.75
2022-11-15T04:55:07.875Z,22.52
2022-11-15T04:58:02.201Z,23.00
2022-11-15T05:00:48.288Z,22.30
2022-11-15T05:03:47.298Z,23.13
2022-11-15T05:06:35.184Z,22.27
2022-11-15T05:09:25.389Z,22.88
2022-11-15T05:12:14.572Z,22.85
2022-11-15T05:15:03.498Z,22.42
2022-11-15T05:17:49.897Z,24.00
2022-11-15T05:20:36.025Z,22.05
2022-11-15T05:23:22.406Z,23.52
2022-11-15T05:26:09.586Z,22.75
2022-11-15T05:28:56.757Z,22.00
2022-11-15T05:31:45.390Z,21.80
2022-11-15T05:34:34.935Z,21.65
2022-11-15T05:37:21.248Z,22.90
2022-11-15T05:40:07.564Z,23.00
2022-11-15T05:42:54.725Z,22.05
2022-11-15T05:45:41.002Z,22.70
2022-11-15T05:48:27.760Z,21.75
2022-11-15T05:51:14.866Z,21.95
2022-11-15T05:54:02.299Z,21.60
2022-11-15T05:56:48.670Z,21.95
2022-11-15T05:59:35.904Z,21.45
2022-11-15T06:02:22.307Z,21.08
2022-11-15T06:05:08.329Z,20.27
2022-11-15T06:07:54.649Z,21.58
2022-11-15T06:10:40.871Z,20.05
2022-11-15T06:13:27.226Z,20.50
2022-11-15T06:16:16.309Z,20.30
2022-11-15T06:19:02.863Z,20.25
2022-11-15T06:21:48.985Z,20.10
2022-11-15T06:24:35.717Z,20.38
2022-11-15T06:27:22.052Z,19.75
2022-11-15T06:30:09.450Z,19.65
2022-11-15T06:33:05.782Z,19.50
2022-11-15T06:35:58.435Z,19.40
2022-11-15T06:38:45.260Z,17.88
2022-11-15T06:41:39.164Z,19.25
2022-11-15T06:44:25.162Z,18.25
2022-11-15T06:47:14.183Z,18.85
2022-11-15T06:50:01.315Z,18.42
2022-11-15T06:52:47.584Z,19.55
2022-11-15T06:55:33.937Z,19.27
2022-11-15T06:58:20.210Z,20.02
2022-11-15T07:01:08.524Z,20.50
2022-11-15T07:03:56.025Z,19.38
2022-11-15T07:06:42.344Z,20.60
2022-11-15T07:09:28.641Z,19.80
2022-11-15T07:12:16.349Z,19.75
2022-11-15T07:15:02.840Z,19.60
2022-11-15T07:17:49.975Z,18.83
2022-11-15T07:20:36.401Z,19.60
2022-11-15T07:23:22.747Z,19.08
2022-11-15T07:26:09.500Z,18.42
2022-11-15T07:28:55.990Z,19.65
2022-11-15T07:31:42.367Z,19.63
2022-11-15T07:34:28.501Z,18.38
2022-11-15T07:37:15.796Z,18.00
2022-11-15T07:40:03.551Z,17.55
2022-11-15T07:42:56.609Z,18.80
2022-11-15T07:45:46.709Z,17.17
2022-11-15T07:48:43.327Z,18.13
2022-11-15T07:51:31.502Z,16.33
2022-11-15T07:54:17.868Z,18.50
2022-11-15T07:57:07.558Z,19.13
2022-11-15T07:59:55.019Z,17.00
2022-11-15T08:02:41.430Z,18.65
2022-11-15T08:05:27.826Z,18.75
2022-11-15T08:08:16.077Z,19.58
2022-11-15T08:11:02.536Z,20.15
2022-11-15T08:13:48.651Z,19.48
2022-11-15T08:16:35.264Z,17.73
2022-11-15T08:19:21.274Z,17.60
2022-11-15T08:22:07.290Z,18.98
2022-11-15T08:24:53.633Z,18.00
2022-11-15T08:27:39.745Z,17.08
2022-11-15T08:30:26.350Z,16.45
2022-11-15T08:33:15.952Z,15.70
2022-11-15T08:36:02.480Z,15.52
2022-11-15T08:38:48.537Z,15.65
2022-11-15T08:41:38.512Z,14.60
2022-11-15T08:44:25.310Z,15.77
2022-11-15T08:47:15.002Z,15.50
2022-11-15T08:50:02.682Z,14.90
2022-11-15T08:52:50.011Z,14.65
2022-11-15T08:55:38.889Z,15.00
2022-11-15T08:58:24.901Z,14.60
2022-11-15T09:01:21.855Z,14.02
2022-11-15T09:04:08.138Z,14.13
2022-11-15T09:06:54.295Z,13.88
2022-11-15T09:09:40.818Z,13.60
2022-11-15T09:12:27.363Z,12.55
2022-11-15T09:15:13.784Z,13.13
2022-11-15T09:18:01.675Z,11.85
2022-11-15T09:20:48.051Z,11.05
2022-11-15T09:23:34.395Z,11.32
2022-11-15T09:26:20.970Z,11.20
2022-11-15T09:29:07.102Z,11.18
2022-11-15T09:31:56.390Z,11.15
2022-11-15T09:34:43.635Z,9.87
2022-11-15T09:37:30.567Z,9.68
2022-11-15T09:40:18.780Z,9.73
2022-11-15T09:43:21.293Z,9.98
2022-11-15T09:46:07.693Z,9.52
2022-11-15T09:48:58.297Z,10.50
2022-11-15T09:51:49.839Z,8.90
2022-11-15T09:57:15.936Z,8.73
2022-11-15T10:00:30.951Z,8.48
2022-11-15T10:02:54.821Z,8.52
2022-11-15T10:05:24.684Z,8.02
2022-11-15T10:08:13.357Z,6.63
2022-11-15T10:10:43.388Z,5.63
2022-11-15T10:13:16.149Z,5.70
2022-11-15T10:15:46.779Z,5.47
2022-11-15T10:18:20.686Z,5.47
2022-11-15T10:20:49.835Z,5.22
2022-11-15T10:23:21.370Z,3.60
2022-11-15T10:25:49.325Z,3.40
2022-11-15T10:28:24.504Z,3.85
2022-11-15T10:30:54.565Z,4.13
2022-11-15T10:33:37.405Z,3.47
2022-11-15T10:36:27.365Z,3.20
2022-11-15T10:38:58.886Z,2.92
2022-11-15T10:41:31.713Z,2.55
2022-11-15T10:44:09.102Z,2.47
2022-11-15T10:46:46.706Z,2.30
2022-11-15T10:49:16.356Z,2.10
2022-11-15T10:51:49.410Z,1.90
2022-11-15T10:54:37.344Z,2.03
2022-11-15T10:57:17.288Z,31.50
2022-11-15T10:59:56.487Z,14.00
2022-11-15T11:02:32.679Z,2.38
2022-11-15T11:05:03.805Z,2.10
2022-11-15T11:07:35.245Z,2.03
2022-11-15T11:10:03.615Z,2.10
2022-11-15T11:12:34.021Z,1.80
2022-11-15T11:15:03.945Z,1.92
2022-11-15T11:17:37.773Z,1.58
2022-11-15T11:20:11.673Z,1.70
2022-11-15T11:22:49.853Z,1.70
2022-11-15T11:25:24.738Z,1.75
2022-11-15T11:27:52.467Z,2.03
2022-11-15T11:30:23.515Z,1.83
2022-11-15T11:33:14.089Z,1.90
2022-11-15T11:35:41.736Z,1.60
2022-11-15T11:38:22.043Z,1.80
2022-11-15T11:40:58.900Z,1.90
2022-11-15T11:44:02.587Z,2.63
2022-11-15T11:46:48.756Z,2.08
2022-11-15T11:49:24.015Z,1.63
2022-11-15T11:51:54.972Z,1.80
2022-11-15T11:54:26.925Z,1.58
2022-11-15T11:56:55.892Z,1.85
2022-11-15T11:59:27.744Z,1.83
2022-11-15T12:01:56.404Z,1.70
2022-11-15T12:04:31.681Z,1.63
2022-11-15T12:07:05.025Z,1.45
2022-11-15T12:09:45.307Z,1.30
2022-11-15T12:12:32.843Z,2.22
2022-11-15T12:15:06.578Z,1.25
2022-11-15T12:17:34.828Z,1.20
2022-11-15T12:20:05.128Z,1.42
2022-11-15T12:22:41.223Z,1.05
2022-11-15T12:25:08.957Z,1.45
2022-11-15T12:27:58.089Z,1.05
2022-11-15T12:30:27.182Z,1.30
2022-11-15T12:32:57.774Z,1.08
2022-11-15T12:35:39.984Z,1.20
2022-11-15T12:38:11.943Z,1.55
2022-11-15T12:40:40.937Z,1.05
2022-11-15T12:43:14.769Z,1.17
2022-11-15T12:45:44.261Z,1.27
2022-11-15T12:48:18.936Z,1.65
2022-11-15T12:50:55.455Z,1.20
2022-11-15T12:53:26.003Z,1.25
2022-11-15T12:58:34.038Z,1.20
2022-11-15T13:04:02.841Z,1.20
2022-11-15T13:06:39.572Z,0.90
2022-11-15T13:09:27.481Z,1.00
2022-11-15T13:11:55.043Z,1.10
2022-11-15T13:14:45.949Z,1.30
2022-11-15T13:17:22.445Z,1.40
2022-11-15T13:19:55.164Z,1.40
2022-11-15T13:22:42.168Z,1.20
2022-11-15T13:25:21.886Z,1.13
2022-11-15T13:27:50.283Z,1.33
2022-11-15T13:30:23.030Z,1.52
2022-11-15T13:32:51.012Z,1.27
2022-11-15T13:35:32.551Z,1.77
2022-11-15T13:38:04.845Z,1.45
2022-11-15T13:40:40.007Z,1.30
2022-11-15T13:43:24.057Z,1.20
2022-11-15T13:46:06.942Z,1.23
2022-11-15T13:48:37.434Z,1.20
2022-11-15T13:53:34.365Z,1.20
2022-11-15T13:56:04.557Z,1.38
2022-11-15T13:58:34.322Z,1.83
2022-11-15T14:01:06.792Z,1.08
2022-11-15T14:03:36.665Z,1.70
2022-11-15T14:06:13.373Z,1.35
2022-11-15T14:08:41.858Z,1.02
2022-11-15T14:11:21.906Z,1.15
2022-11-15T14:14:05.013Z,1.20
2022-11-15T14:16:37.549Z,0.95
2022-11-15T14:19:06.318Z,1.00
2022-11-15T14:21:34.738Z,1.00
2022-11-15T14:24:22.698Z,1.20
2022-11-15T14:26:50.835Z,1.20
2022-11-15T14:29:25.661Z,1.00
2022-11-15T14:31:53.783Z,1.05
2022-11-15T14:34:23.653Z,1.05
2022-11-15T14:36:51.629Z,1.13
2022-11-15T14:39:23.527Z,1.55
2022-11-15T14:41:51.284Z,1.02
2022-11-15T14:44:23.090Z,1.27
2022-11-15T14:46:51.012Z,1.00
2022-11-15T14:49:18.790Z,1.13
2022-11-15T14:51:48.451Z,1.20
2022-11-15T14:54:17.003Z,1.40
2022-11-15T14:56:44.482Z,1.50
2022-11-15T14:59:14.026Z,1.30
2022-11-15T15:01:41.766Z,1.35
2022-11-15T15:04:10.814Z,1.33
2022-11-15T15:06:38.641Z,1.25
2022-11-15T15:09:06.720Z,1.33
2022-11-15T15:11:34.280Z,1.42
2022-11-15T15:14:02.557Z,1.70
2022-11-15T15:16:31.059Z,1.90
2022-11-15T15:18:58.606Z,1.33
2022-11-15T15:21:33.582Z,1.45
2022-11-15T15:24:04.489Z,1.35
2022-11-15T15:26:37.548Z,2.65
2022-11-15T15:29:06.421Z,6.15
2022-11-15T15:31:34.693Z,3.22
2022-11-15T15:34:03.246Z,2.47
2022-11-15T15:36:31.896Z,2.60
2022-11-15T15:39:00.499Z,1.80
2022-11-15T15:41:28.244Z,1.48
2022-11-15T15:43:55.965Z,2.08
2022-11-15T15:46:23.668Z,1.80
2022-11-15T15:48:51.917Z,3.03
2022-11-15T15:51:20.673Z,12.05
2022-11-15T15:53:49.297Z,3.97
2022-11-15T15:56:17.121Z,6.72
2022-11-15T15:58:45.084Z,2.00
2022-11-15T16:01:13.370Z,2.45
2022-11-15T16:03:41.377Z,1.70
2022-11-15T16:06:32.201Z,2.00
2022-11-15T16:09:15.304Z,2.25
2022-11-15T16:11:44.323Z,2.30
2022-11-15T16:14:12.180Z,1.77
2022-11-15T16:16:40.007Z,1.70
2022-11-15T16:19:07.617Z,1.70
2022-11-15T16:21:35.887Z,1.88
2022-11-15T16:24:03.541Z,1.90
2022-11-15T16:26:32.531Z,1.90
2022-11-15T16:29:01.584Z,2.25
2022-11-15T16:31:30.584Z,1.73
2022-11-15T16:34:00.549Z,1.85
2022-11-15T16:36:31.901Z,1.90
2022-11-15T16:39:02.292Z,2.03
2022-11-15T16:41:32.089Z,2.40
2022-11-15T16:44:00.810Z,2.13
2022-11-15T16:46:30.991Z,2.25
2022-11-15T16:49:01.312Z,2.20
2022-11-15T16:51:41.099Z,1.90
2022-11-15T16:54:09.302Z,1.95
2022-11-15T16:56:36.983Z,3.00
2022-11-15T16:59:06.351Z,1.75
2022-11-15T17:04:42.459Z,5.50
2022-11-15T17:07:10.064Z,3.78
2022-11-15T17:09:38.688Z,3.42
2022-11-15T17:12:07.492Z,3.00
2022-11-15T17:14:36.166Z,2.85
2022-11-15T17:17:04.549Z,3.00
2022-11-15T17:19:34.253Z,3.05
2022-11-15T17:22:09.215Z,2.83
2022-11-15T17:24:51.872Z,3.00
2022-11-15T17:27:31.446Z,3.13
2022-11-15T17:30:20.071Z,3.70
2022-11-15T17:33:07.932Z,3.77
2022-11-15T17:35:43.645Z,3.55
2022-11-15T17:38:17.784Z,3.70
2022-11-15T17:45:25.184Z,9.13
2022-11-15T17:47:54.066Z,10.88
2022-11-15T17:50:22.862Z,12.15
2022-11-15T17:52:52.485Z,7.95
2022-11-15T17:55:26.202Z,5.03
2022-11-15T17:57:53.970Z,4.40
2022-11-15T18:00:24.329Z,4.88
2022-11-15T18:02:51.834Z,5.28
2022-11-15T18:05:22.063Z,4.80
2022-11-15T18:07:49.873Z,4.70
2022-11-15T18:10:18.547Z,5.45
2022-11-15T18:12:46.024Z,5.20
2022-11-15T18:15:14.999Z,5.00
2022-11-15T18:17:42.781Z,4.70
2022-11-15T18:20:10.681Z,5.38
2022-11-15T18:22:38.221Z,5.80
2022-11-15T18:25:07.670Z,5.60
2022-11-15T18:27:35.305Z,5.80
2022-11-15T18:30:04.880Z,5.80
2022-11-15T18:32:36.052Z,5.72
2022-11-15T18:35:06.786Z,5.40
2022-11-15T18:37:34.800Z,5.82
2022-11-15T18:40:02.600Z,5.70
2022-11-15T18:42:33.051Z,5.60
2022-11-15T18:45:03.750Z,7.75
2022-11-15T18:47:32.216Z,8.32
2022-11-15T18:50:02.917Z,7.00
2022-11-15T18:52:32.313Z,5.93
2022-11-15T18:55:05.237Z,6.40
2022-11-15T18:57:33.182Z,6.32
2022-11-15T19:00:00.995Z,5.82
2022-11-15T19:02:29.392Z,6.25
2022-11-15T19:04:58.263Z,6.53
2022-11-15T19:07:26.051Z,5.68
2022-11-15T19:09:53.670Z,5.57
2022-11-15T19:12:21.084Z,5.82
2022-11-15T19:14:48.792Z,6.20
2022-11-15T19:17:16.284Z,5.85
2022-11-15T19:27:38.596Z,5.82
2022-11-15T19:30:11.243Z,6.10
2022-11-15T19:32:38.745Z,6.10
2022-11-15T19:35:11.321Z,5.97
2022-11-15T19:37:39.042Z,6.55
2022-11-15T19:40:06.828Z,8.65
2022-11-15T19:42:34.330Z,7.00
2022-11-15T19:45:30.479Z,7.00
2022-11-15T19:48:16.645Z,7.15
2022-11-15T19:50:58.460Z,6.40
2022-11-15T19:53:35.526Z,6.40
2022-11-15T19:56:05.055Z,6.18
2022-11-15T19:58:34.015Z,6.45
2022-11-15T20:01:44.568Z,6.38
2022-11-15T20:08:39.986Z,6.28
2022-11-15T20:11:10.067Z,6.15
2022-11-15T20:13:37.970Z,6.78
2022-11-15T20:16:05.696Z,6.40
2022-11-15T20:18:33.609Z,6.25
2022-11-15T20:21:06.617Z,6.78
2022-11-15T20:23:34.109Z,7.05
2022-11-15T20:26:03.240Z,6.57
2022-11-15T20:28:31.981Z,7.03
2022-11-15T20:31:01.628Z,8.15
2022-11-15T20:33:31.974Z,7.88
2022-11-15T20:36:04.369Z,7.10
2022-11-15T20:38:36.145Z,7.63
2022-11-15T20:41:04.077Z,7.63
2022-11-15T20:43:32.280Z,7.47
2022-11-15T20:46:00.313Z,7.88
2022-11-15T20:48:27.849Z,8.23
2022-11-15T20:51:06.200Z,10.18
2022-11-15T20:53:34.630Z,9.38
2022-11-15T20:56:11.126Z,10.93
2022-11-15T20:58:38.775Z,8.55
2022-11-15T21:01:08.951Z,7.60
2022-11-15T21:03:37.588Z,7.30
2022-11-15T21:06:05.333Z,7.88
2022-11-15T21:08:55.883Z,8.18
2022-11-15T21:11:43.871Z,6.82
2022-11-15T21:14:11.811Z,7.10
2022-11-15T21:16:39.520Z,7.45
2022-11-15T21:19:07.460Z,7.40
2022-11-15T21:21:46.113Z,7.25
2022-11-15T21:24:26.644Z,7.10
2022-11-15T21:26:55.152Z,7.22
2022-11-15T21:29:22.897Z,7.38
2022-11-15T21:31:51.704Z,7.10
2022-11-15T21:34:19.897Z,7.55
2022-11-15T21:36:47.742Z,6.88
2022-11-15T21:39:15.431Z,8.23
2022-11-15T21:41:43.307Z,7.75
2022-11-15T21:44:10.852Z,8.05
2022-11-15T21:46:38.577Z,7.47
2022-11-15T21:49:06.809Z,8.10
2022-11-15T21:51:35.138Z,7.82
2022-11-15T21:54:02.779Z,7.65
2022-11-15T21:56:32.060Z,7.28
2022-11-15T21:59:01.381Z,7.93
2022-11-15T22:01:47.994Z,7.50
2022-11-15T22:04:16.754Z,8.18
2022-11-15T22:06:44.476Z,8.93
2022-11-15T22:09:12.315Z,8.00
2022-11-15T22:11:40.060Z,8.43
2022-11-15T22:14:08.384Z,7.88
2022-11-15T22:16:37.884Z,8.32
2022-11-15T22:19:05.434Z,8.77
2022-11-15T22:21:33.044Z,8.85
2022-11-15T22:24:01.962Z,9.25
2022-11-15T22:26:31.882Z,9.32
2022-11-15T22:29:01.989Z,9.60
2022-11-15T22:31:30.222Z,8.75
2022-11-15T22:33:57.724Z,9.18
2022-11-15T22:36:30.382Z,9.55
2022-11-15T22:39:06.439Z,9.50
2022-11-15T22:41:33.939Z,9.30
2022-11-15T22:44:02.318Z,10.38
2022-11-15T22:46:33.167Z,9.40
2022-11-15T22:49:03.729Z,10.25
2022-11-15T22:54:02.030Z,9.88
2022-11-15T22:56:30.516Z,10.43
2022-11-15T22:58:58.282Z,10.27
2022-11-15T23:01:25.963Z,10.65
2022-11-15T23:03:53.717Z,11.05
2022-11-15T23:06:21.288Z,11.30
2022-11-15T23:08:48.912Z,11.60
2022-11-15T23:11:35.659Z,11.02
2022-11-15T23:14:03.206Z,10.27
2022-11-15T23:16:35.725Z,11.77
2022-11-15T23:19:07.601Z,12.55
2022-11-15T23:22:01.896Z,12.00
2022-11-15T23:24:33.088Z,11.25
2022-11-15T23:27:02.640Z,11.15
2022-11-15T23:29:31.416Z,12.13
2022-11-15T23:32:17.564Z,11.43
2022-11-15T23:34:46.363Z,12.25
2022-11-15T23:37:18.462Z,11.52
2022-11-15T23:39:46.702Z,12.60
2022-11-15T23:42:20.134Z,12.27
2022-11-15T23:44:50.775Z,12.90
2022-11-15T23:47:19.840Z,12.18
2022-11-15T23:49:47.621Z,12.43
2022-11-15T23:52:15.736Z,13.73
2022-11-15T23:54:43.750Z,13.73
2022-11-15T23:57:12.746Z,14.57
2022-11-15T23:59:41.428Z,14.55
